Time,TemperatureF,DewpointF,PressureIn,WindDirection,WindDirectionDegrees,WindSpeedMPH,WindSpeedGustMPH,Humidity,HourlyPrecipIn,Conditions,Clouds,dailyrainin,SoftwareType,DateUTC
2013-04-18 00:11:00,34.9,34.6,29.65,North,-999,22.5,-999.0,99,-99.99,,,-99.99,Acu-Link.com,2013-04-18 05:11:00,
2013-04-18 00:26:00,34.6,34.3,29.68,North,-999,20.9,-999.0,99,-99.99,,,-99.99,Acu-Link.com,2013-04-18 05:26:00,
2013-04-18 00:42:00,34.3,34.0,29.69,North,-999,9.6,-999.0,99,-99.99,,,-99.99,Acu-Link.com,2013-04-18 05:42:00,
2013-04-18 00:57:00,34.3,34.0,29.72,North,-999,11.2,-999.0,99,-99.99,,,-99.99,Acu-Link.com,2013-04-18 05:57:00,
2013-04-18 01:12:00,33.7,33.4,29.72,North,-999,11.2,-999.0,99,-99.99,,,-99.99,Acu-Link.com,2013-04-18 06:12:00,
2013-04-18 01:27:00,33.5,33.2,29.70,North,-999,14.5,-999.0,99,-99.99,,,-99.99,Acu-Link.com,2013-04-18 06:27:00,
2013-04-18 01:43:00,33.3,33.0,29.73,North,-999,4.8,-999.0,99,-99.99,,,-99.99,Acu-Link.com,2013-04-18 06:43:00,
2013-04-18 01:58:00,32.9,32.7,29.69,North,-999,19.3,-999.0,99,-99.99,,,-99.99,Acu-Link.com,2013-04-18 06:58:00,
2013-04-18 02:13:00,32.7,32.5,29.71,North,-999,4.8,-999.0,99,-99.99,,,-99.99,Acu-Link.com,2013-04-18 07:13:00,
2013-04-18 02:28:00,32.6,32.4,29.69,North,-999,12.8,-999.0,99,-99.99,,,-99.99,Acu-Link.com,2013-04-18 07:28:00,
2013-04-18 02:43:00,32.7,32.5,29.70,North,-999,6.4,-999.0,99,-99.99,,,-99.99,Acu-Link.com,2013-04-18 07:43:00,
2013-04-18 02:58:00,32.5,32.3,29.66,North,-999,16.1,-999.0,99,-99.99,,,-99.99,Acu-Link.com,2013-04-18 07:58:00,
2013-04-18 03:35:00,32.6,32.4,29.67,North,-999,4.8,-999.0,99,-99.99,,,-99.99,Acu-Link.com,2013-04-18 08:35:00,
2013-04-18 03:53:00,32.6,32.4,29.65,North,-999,9.6,-999.0,99,-99.99,,,-99.99,Acu-Link.com,2013-04-18 08:53:00,
2013-04-18 04:09:00,32.6,32.4,29.63,North,-999,6.4,-999.0,99,-99.99,,,-99.99,Acu-Link.com,2013-04-18 09:09:00,
2013-04-18 04:24:00,32.7,32.5,29.65,North,-999,6.4,-999.0,99,-99.99,,,-99.99,Acu-Link.com,2013-04-18 09:24:00,
2013-04-18 04:39:00,32.6,32.4,29.65,North,-999,6.4,-999.0,99,-99.99,,,-99.99,Acu-Link.com,2013-04-18 09:39:00,
2013-04-18 04:55:00,32.5,32.3,29.65,North,-999,9.6,-999.0,99,-99.99,,,-99.99,Acu-Link.com,2013-04-18 09:55:00,
2013-04-18 05:10:00,32.5,32.3,29.65,North,-999,8.0,-999.0,99,-99.99,,,-99.99,Acu-Link.com,2013-04-18 10:10:00,
2013-04-18 05:25:00,32.2,32.0,29.65,North,-999,8.0,-999.0,99,-99.99,,,-99.99,Acu-Link.com,2013-04-18 10:25:00,
2013-04-18 05:40:00,32.0,31.8,29.64,North,-999,8.0,-999.0,99,-99.99,,,-99.99,Acu-Link.com,2013-04-18 10:40:00,
2013-04-18 05:55:00,31.5,31.3,29.63,North,-999,6.4,-999.0,99,-99.99,,,-99.99,Acu-Link.com,2013-04-18 10:55:00,
2013-04-18 06:26:00,30.8,30.6,29.63,North,-999,8.0,-999.0,99,-99.99,,,-99.99,Acu-Link.com,2013-04-18 11:26:00,
2013-04-18 06:41:00,30.6,30.4,29.64,North,-999,6.4,-999.0,99,-99.99,,,-99.99,Acu-Link.com,2013-04-18 11:41:00,
2013-04-18 06:57:00,30.4,30.2,29.64,North,-999,4.8,-999.0,99,-99.99,,,-99.99,Acu-Link.com,2013-04-18 11:57:00,
2013-04-18 07:13:00,30.2,30.0,29.67,North,-999,6.4,-999.0,99,-99.99,,,-99.99,Acu-Link.com,2013-04-18 12:13:00,
2013-04-18 07:28:00,29.9,29.7,29.68,North,-999,12.8,-999.0,99,-99.99,,,-99.99,Acu-Link.com,2013-04-18 12:28:00,
2013-04-18 07:43:00,29.8,29.6,29.69,North,-999,16.1,-999.0,99,-99.99,,,-99.99,Acu-Link.com,2013-04-18 12:43:00,
2013-04-18 07:58:00,30.1,29.9,29.69,North,-999,6.4,-999.0,99,-99.99,,,-99.99,Acu-Link.com,2013-04-18 12:58:00,
2013-04-18 08:14:00,29.8,29.6,29.69,North,-999,8.0,-999.0,99,-99.99,,,-99.99,Acu-Link.com,2013-04-18 13:14:00,
2013-04-18 08:29:00,29.7,29.5,29.68,North,-999,9.6,-999.0,99,-99.99,,,-99.99,Acu-Link.com,2013-04-18 13:29:00,
2013-04-18 08:44:00,30.3,30.1,29.67,North,-999,8.0,-999.0,99,-99.99,,,-99.99,Acu-Link.com,2013-04-18 13:44:00,
2013-04-18 09:00:00,30.5,30.0,29.67,North,-999,11.2,-999.0,98,-99.99,,,-99.99,Acu-Link.com,2013-04-18 14:00:00,
2013-04-18 09:15:00,30.6,30.1,29.67,North,-999,8.0,-999.0,98,-99.99,,,-99.99,Acu-Link.com,2013-04-18 14:15:00,
2013-04-18 09:30:00,30.8,30.3,29.67,North,-999,8.0,-999.0,98,-99.99,,,-99.99,Acu-Link.com,2013-04-18 14:30:00,
2013-04-18 09:46:00,30.7,30.0,29.68,North,-999,8.0,-999.0,97,-99.99,,,-99.99,Acu-Link.com,2013-04-18 14:46:00,
2013-04-18 10:16:00,30.6,29.9,29.68,North,-999,4.8,-999.0,97,-99.99,,,-99.99,Acu-Link.com,2013-04-18 15:16:00,
2013-04-18 10:31:00,30.9,29.9,29.68,North,-999,6.4,-999.0,96,-99.99,,,-99.99,Acu-Link.com,2013-04-18 15:31:00,
2013-04-18 10:47:00,31.3,30.0,29.68,North,-999,6.4,-999.0,95,-99.99,,,-99.99,Acu-Link.com,2013-04-18 15:47:00,
2013-04-18 11:02:00,32.3,30.5,29.68,North,-999,9.6,-999.0,93,-99.99,,,-99.99,Acu-Link.com,2013-04-18 16:02:00,
2013-04-18 11:17:00,32.3,30.5,29.68,North,-999,9.6,-999.0,93,-99.99,,,-99.99,Acu-Link.com,2013-04-18 16:17:00,
2013-04-18 11:32:00,32.5,30.7,29.68,North,-999,6.4,-999.0,93,-99.99,,,-99.99,Acu-Link.com,2013-04-18 16:32:00,
2013-04-18 11:48:00,33.2,30.3,29.68,North,-999,12.8,-999.0,89,-99.99,,,-99.99,Acu-Link.com,2013-04-18 16:48:00,
2013-04-18 12:03:00,33.3,30.4,29.69,North,-999,19.3,-999.0,89,-99.99,,,-99.99,Acu-Link.com,2013-04-18 17:03:00,
2013-04-18 12:18:00,33.4,30.5,29.68,North,-999,12.8,-999.0,89,-99.99,,,-99.99,Acu-Link.com,2013-04-18 17:18:00,
2013-04-18 12:34:00,34.9,32.0,29.68,North,-999,11.2,-999.0,89,-99.99,,,-99.99,Acu-Link.com,2013-04-18 17:34:00,
2013-04-18 12:49:00,34.1,31.5,29.69,North,-999,8.0,-999.0,90,-99.99,,,-99.99,Acu-Link.com,2013-04-18 17:49:00,
2013-04-18 13:04:00,34.0,31.4,29.69,North,-999,8.0,-999.0,90,-99.99,,,-99.99,Acu-Link.com,2013-04-18 18:04:00,
2013-04-18 13:20:00,34.5,31.9,29.70,North,-999,11.2,-999.0,90,-99.99,,,-99.99,Acu-Link.com,2013-04-18 18:20:00,
2013-04-18 13:35:00,36.0,32.8,29.70,North,-999,14.5,-999.0,88,-99.99,,,-99.99,Acu-Link.com,2013-04-18 18:35:00,
2013-04-18 13:50:00,37.0,34.1,29.70,North,-999,6.4,-999.0,89,-99.99,,,-99.99,Acu-Link.com,2013-04-18 18:50:00,
2013-04-18 14:06:00,36.6,33.4,29.70,North,-999,8.0,-999.0,88,-99.99,,,-99.99,Acu-Link.com,2013-04-18 19:06:00,
2013-04-18 14:21:00,36.1,32.3,29.71,North,-999,12.8,-999.0,86,-99.99,,,-99.99,Acu-Link.com,2013-04-18 19:21:00,
2013-04-18 14:36:00,37.0,32.6,29.72,North,-999,14.5,-999.0,84,-99.99,,,-99.99,Acu-Link.com,2013-04-18 19:36:00,
2013-04-18 14:52:00,36.2,33.8,29.72,North,-999,8.0,-999.0,91,-99.99,,,-99.99,Acu-Link.com,2013-04-18 19:52:00,
2013-04-18 15:07:00,36.6,33.1,29.72,North,-999,8.0,-999.0,87,-99.99,,,-99.99,Acu-Link.com,2013-04-18 20:07:00,
2013-04-18 15:22:00,36.0,32.2,29.73,North,-999,24.1,-999.0,86,-99.99,,,-99.99,Acu-Link.com,2013-04-18 20:22:00,
2013-04-18 15:38:00,36.1,32.6,29.74,North,-999,9.6,-999.0,87,-99.99,,,-99.99,Acu-Link.com,2013-04-18 20:38:00,
2013-04-18 15:53:00,36.3,32.8,29.73,North,-999,11.2,-999.0,87,-99.99,,,-99.99,Acu-Link.com,2013-04-18 20:53:00,
2013-04-18 16:08:00,36.4,32.3,29.74,North,-999,16.1,-999.0,85,-99.99,,,-99.99,Acu-Link.com,2013-04-18 21:08:00,
2013-04-18 16:24:00,36.4,32.6,29.74,North,-999,19.3,-999.0,86,-99.99,,,-99.99,Acu-Link.com,2013-04-18 21:24:00,
2013-04-18 16:39:00,35.9,32.1,29.74,North,-999,11.2,-999.0,86,-99.99,,,-99.99,Acu-Link.com,2013-04-18 21:39:00,
2013-04-18 16:54:00,36.3,32.2,29.75,North,-999,11.2,-999.0,85,-99.99,,,-99.99,Acu-Link.com,2013-04-18 21:54:00,
2013-04-18 17:10:00,36.3,31.9,29.75,North,-999,8.0,-999.0,84,-99.99,,,-99.99,Acu-Link.com,2013-04-18 22:10:00,
2013-04-18 17:25:00,36.3,31.6,29.75,North,-999,11.2,-999.0,83,-99.99,,,-99.99,Acu-Link.com,2013-04-18 22:25:00,
2013-04-18 17:40:00,35.7,30.8,29.76,North,-999,8.0,-999.0,82,-99.99,,,-99.99,Acu-Link.com,2013-04-18 22:40:00,
2013-04-18 17:55:00,35.5,30.9,29.77,North,-999,8.0,-999.0,83,-99.99,,,-99.99,Acu-Link.com,2013-04-18 22:55:00,
2013-04-18 18:10:00,35.3,30.7,29.77,North,-999,6.4,-999.0,83,-99.99,,,-99.99,Acu-Link.com,2013-04-18 23:10:00,
2013-04-18 18:26:00,34.8,30.2,29.77,North,-999,16.1,-999.0,83,-99.99,,,-99.99,Acu-Link.com,2013-04-18 23:26:00,
2013-04-18 18:41:00,34.4,29.5,29.78,North,-999,6.4,-999.0,82,-99.99,,,-99.99,Acu-Link.com,2013-04-18 23:41:00,
2013-04-18 18:56:00,33.8,28.9,29.79,North,-999,11.2,-999.0,82,-99.99,,,-99.99,Acu-Link.com,2013-04-18 23:56:00,
2013-04-18 19:12:00,33.1,29.1,29.79,North,-999,9.6,-999.0,85,-99.99,,,-99.99,Acu-Link.com,2013-04-19 00:12:00,
2013-04-18 19:27:00,32.5,28.5,29.80,North,-999,8.0,-999.0,85,-99.99,,,-99.99,Acu-Link.com,2013-04-19 00:27:00,
2013-04-18 19:42:00,31.7,28.6,29.80,North,-999,6.4,-999.0,88,-99.99,,,-99.99,Acu-Link.com,2013-04-19 00:42:00,
2013-04-18 19:58:00,31.0,29.2,29.81,North,-999,6.4,-999.0,93,-99.99,,,-99.99,Acu-Link.com,2013-04-19 00:58:00,
2013-04-18 20:13:00,30.7,28.7,29.81,North,-999,8.0,-999.0,92,-99.99,,,-99.99,Acu-Link.com,2013-04-19 01:13:00,
2013-04-18 20:28:00,31.0,27.9,29.82,North,-999,3.2,-999.0,88,-99.99,,,-99.99,Acu-Link.com,2013-04-19 01:28:00,
2013-04-18 20:43:00,31.4,27.7,29.81,North,-999,11.2,-999.0,86,-99.99,,,-99.99,Acu-Link.com,2013-04-19 01:43:00,
2013-04-18 20:59:00,31.6,27.6,29.82,North,-999,12.8,-999.0,85,-99.99,,,-99.99,Acu-Link.com,2013-04-19 01:59:00,
2013-04-18 21:14:00,31.4,28.0,29.82,North,-999,6.4,-999.0,87,-99.99,,,-99.99,Acu-Link.com,2013-04-19 02:14:00,
2013-04-18 21:29:00,30.9,29.1,29.83,North,-999,3.2,-999.0,93,-99.99,,,-99.99,Acu-Link.com,2013-04-19 02:29:00,
2013-04-18 21:45:00,31.1,29.3,29.83,North,-999,4.8,-999.0,93,-99.99,,,-99.99,Acu-Link.com,2013-04-19 02:45:00,
2013-04-18 22:00:00,31.5,28.9,29.83,North,-999,4.8,-999.0,90,-99.99,,,-99.99,Acu-Link.com,2013-04-19 03:00:00,
2013-04-18 22:15:00,32.0,28.6,29.83,North,-999,8.0,-999.0,87,-99.99,,,-99.99,Acu-Link.com,2013-04-19 03:15:00,
2013-04-18 22:31:00,32.0,28.3,29.83,North,-999,9.6,-999.0,86,-99.99,,,-99.99,Acu-Link.com,2013-04-19 03:31:00,
2013-04-18 22:46:00,31.9,28.2,29.82,North,-999,16.1,-999.0,86,-99.99,,,-99.99,Acu-Link.com,2013-04-19 03:46:00,
2013-04-18 23:01:00,31.2,27.8,29.82,North,-999,4.8,-999.0,87,-99.99,,,-99.99,Acu-Link.com,2013-04-19 04:01:00,
2013-04-18 23:16:00,30.8,27.7,29.81,North,-999,14.5,-999.0,88,-99.99,,,-99.99,Acu-Link.com,2013-04-19 04:16:00,
2013-04-18 23:31:00,30.7,27.6,29.82,North,-999,6.4,-999.0,88,-99.99,,,-99.99,Acu-Link.com,2013-04-19 04:31:00,
2013-04-18 23:47:00,31.4,27.7,29.81,North,-999,6.4,-999.0,86,-99.99,,,-99.99,Acu-Link.com,2013-04-19 04:47:00,